sensor_id;sensor_type;location;lat;lon;timestamp;temperature;humidity
15152;DHT22;7676;50.900;6.234;2023-08-01T00:02:45;16.90;99.90
15152;DHT22;7676;50.900;6.234;2023-08-01T00:17:49;16.80;99.90
15152;DHT22;7676;50.900;6.234;2023-08-01T00:32:51;16.90;99.90
15152;DHT22;7676;50.900;6.234;2023-08-01T00:47:54;16.80;99.90
15152;DHT22;7676;50.900;6.234;2023-08-01T01:02:57;16.50;99.90
15152;DHT22;7676;50.900;6.234;2023-08-01T01:18:01;16.40;99.90
15152;DHT22;7676;50.900;6.234;2023-08-01T01:33:04;16.30;99.90
15152;DHT22;7676;50.900;6.234;2023-08-01T01:48:07;16.20;99.90
15152;DHT22;7676;50.900;6.234;2023-08-01T02:03:11;16.20;99.90
15152;DHT22;7676;50.900;6.234;2023-08-01T02:18:15;16.30;99.90
15152;DHT22;7676;50.900;6.234;2023-08-01T02:33:18;16.10;99.90
15152;DHT22;7676;50.900;6.234;2023-08-01T02:48:22;16.00;99.90
15152;DHT22;7676;50.900;6.234;2023-08-01T03:03:25;15.90;99.90
15152;DHT22;7676;50.900;6.234;2023-08-01T03:18:28;15.60;99.90
15152;DHT22;7676;50.900;6.234;2023-08-01T03:33:33;15.50;99.90
15152;DHT22;7676;50.900;6.234;2023-08-01T03:48:41;15.60;99.90
15152;DHT22;7676;50.900;6.234;2023-08-01T04:03:49;15.30;99.90
15152;DHT22;7676;50.900;6.234;2023-08-01T04:18:52;15.30;99.90
15152;DHT22;7676;50.900;6.234;2023-08-01T04:33:55;15.20;99.90
15152;DHT22;7676;50.900;6.234;2023-08-01T04:49:01;14.90;99.90
15152;DHT22;7676;50.900;6.234;2023-08-01T05:04:10;15.10;99.90
15152;DHT22;7676;50.900;6.234;2023-08-01T05:19:16;14.80;99.90
15152;DHT22;7676;50.900;6.234;2023-08-01T05:34:19;15.90;99.90
15152;DHT22;7676;50.900;6.234;2023-08-01T05:49:23;15.40;99.90
15152;DHT22;7676;50.900;6.234;2023-08-01T06:04:27;15.40;99.90
15152;DHT22;7676;50.900;6.234;2023-08-01T06:19:31;15.50;99.90
15152;DHT22;7676;50.900;6.234;2023-08-01T06:34:35;15.40;99.90
15152;DHT22;7676;50.900;6.234;2023-08-01T06:49:38;15.60;99.90
15152;DHT22;7676;50.900;6.234;2023-08-01T07:04:42;15.80;99.90
15152;DHT22;7676;50.900;6.234;2023-08-01T07:19:46;16.30;99.90
15152;DHT22;7676;50.900;6.234;2023-08-01T07:34:52;16.60;99.90
15152;DHT22;7676;50.900;6.234;2023-08-01T07:49:55;16.30;99.90
15152;DHT22;7676;50.900;6.234;2023-08-01T08:04:58;17.10;99.90
15152;DHT22;7676;50.900;6.234;2023-08-01T08:20:02;16.80;99.90
15152;DHT22;7676;50.900;6.234;2023-08-01T08:35:06;17.10;99.90
15152;DHT22;7676;50.900;6.234;2023-08-01T08:50:23;17.50;99.90
15152;DHT22;7676;50.900;6.234;2023-08-01T09:05:31;17.50;99.90
15152;DHT22;7676;50.900;6.234;2023-08-01T09:20:49;17.50;99.90
15152;DHT22;7676;50.900;6.234;2023-08-01T09:35:52;17.80;99.90
15152;DHT22;7676;50.900;6.234;2023-08-01T09:51:18;18.50;99.90
15152;DHT22;7676;50.900;6.234;2023-08-01T10:06:30;18.90;99.90
15152;DHT22;7676;50.900;6.234;2023-08-01T10:21:35;19.00;99.90
15152;DHT22;7676;50.900;6.234;2023-08-01T10:36:39;18.90;99.90
15152;DHT22;7676;50.900;6.234;2023-08-01T10:51:42;19.70;99.90
15152;DHT22;7676;50.900;6.234;2023-08-01T11:06:47;20.30;99.90
15152;DHT22;7676;50.900;6.234;2023-08-01T11:21:51;20.30;99.90
15152;DHT22;7676;50.900;6.234;2023-08-01T11:37:01;20.60;99.90
15152;DHT22;7676;50.900;6.234;2023-08-01T11:52:05;20.40;99.90
15152;DHT22;7676;50.900;6.234;2023-08-01T12:07:14;19.50;99.90
15152;DHT22;7676;50.900;6.234;2023-08-01T12:22:19;19.40;99.90
15152;DHT22;7676;50.900;6.234;2023-08-01T12:37:24;19.40;99.90
15152;DHT22;7676;50.900;6.234;2023-08-01T12:52:27;19.10;99.90
15152;DHT22;7676;50.900;6.234;2023-08-01T13:07:30;20.60;99.90
15152;DHT22;7676;50.900;6.234;2023-08-01T13:22:36;20.20;99.90
15152;DHT22;7676;50.900;6.234;2023-08-01T13:37:39;20.20;99.90
15152;DHT22;7676;50.900;6.234;2023-08-01T13:52:42;19.50;99.90
15152;DHT22;7676;50.900;6.234;2023-08-01T14:07:45;19.30;99.90
15152;DHT22;7676;50.900;6.234;2023-08-01T14:22:48;19.00;99.90
15152;DHT22;7676;50.900;6.234;2023-08-01T14:37:50;19.20;99.90
15152;DHT22;7676;50.900;6.234;2023-08-01T14:52:56;18.10;99.90
15152;DHT22;7676;50.900;6.234;2023-08-01T15:08:00;18.90;99.90
15152;DHT22;7676;50.900;6.234;2023-08-01T15:23:08;18.70;99.90
15152;DHT22;7676;50.900;6.234;2023-08-01T15:38:11;18.60;99.90
15152;DHT22;7676;50.900;6.234;2023-08-01T15:53:14;19.00;99.90
15152;DHT22;7676;50.900;6.234;2023-08-01T16:08:23;19.20;99.90
15152;DHT22;7676;50.900;6.234;2023-08-01T16:23:28;19.10;99.90
15152;DHT22;7676;50.900;6.234;2023-08-01T16:38:31;20.50;99.90
15152;DHT22;7676;50.900;6.234;2023-08-01T16:53:37;18.80;99.90
15152;DHT22;7676;50.900;6.234;2023-08-01T17:08:42;18.40;99.90
15152;DHT22;7676;50.900;6.234;2023-08-01T17:38:51;18.40;99.90
15152;DHT22;7676;50.900;6.234;2023-08-01T17:53:58;18.30;99.90
15152;DHT22;7676;50.900;6.234;2023-08-01T18:09:01;18.40;99.90
15152;DHT22;7676;50.900;6.234;2023-08-01T18:24:04;18.10;99.90
15152;DHT22;7676;50.900;6.234;2023-08-01T18:39:11;17.80;99.90
15152;DHT22;7676;50.900;6.234;2023-08-01T18:54:14;17.50;99.90
15152;DHT22;7676;50.900;6.234;2023-08-01T19:09:17;17.60;99.90
15152;DHT22;7676;50.900;6.234;2023-08-01T19:24:23;17.70;99.90
15152;DHT22;7676;50.900;6.234;2023-08-01T19:39:33;17.70;99.90
15152;DHT22;7676;50.900;6.234;2023-08-01T19:54:36;17.70;99.90
15152;DHT22;7676;50.900;6.234;2023-08-01T20:09:39;17.70;99.90
15152;DHT22;7676;50.900;6.234;2023-08-01T20:24:42;18.10;99.90
15152;DHT22;7676;50.900;6.234;2023-08-01T20:39:45;18.10;99.90
15152;DHT22;7676;50.900;6.234;2023-08-01T20:54:49;18.10;99.90
15152;DHT22;7676;50.900;6.234;2023-08-01T21:09:51;17.90;99.90
15152;DHT22;7676;50.900;6.234;2023-08-01T21:24:59;16.70;99.90
15152;DHT22;7676;50.900;6.234;2023-08-01T21:40:04;17.40;99.90
15152;DHT22;7676;50.900;6.234;2023-08-01T21:55:08;17.30;99.90
15152;DHT22;7676;50.900;6.234;2023-08-01T22:10:26;17.00;99.90
15152;DHT22;7676;50.900;6.234;2023-08-01T22:25:43;17.10;99.90
15152;DHT22;7676;50.900;6.234;2023-08-01T22:55:53;16.80;99.90
15152;DHT22;7676;50.900;6.234;2023-08-01T23:10:57;16.60;99.90
15152;DHT22;7676;50.900;6.234;2023-08-01T23:26:04;16.60;99.90
15152;DHT22;7676;50.900;6.234;2023-08-01T23:41:12;16.70;99.90
15152;DHT22;7676;50.900;6.234;2023-08-01T23:56:16;16.50;99.90
